Time;durP1;ratioP1;P1;durP2;ratioP2;P2;SDS_P1;SDS_P2;PMS_P1;PMS_P2;Temp;Humidity;BMP_temperature;BMP_pressure;BME280_temperature;BME280_humidity;BME280_pressure;Samples;Min_cycle;Max_cycle;Signal;HPM_P1;HPM_P2
2024/02/11 00:02:37;;;;;;;96.88;49.58;;;7.80;99.90;;;;;;6059233;23;20038;-80
2024/02/11 00:05:28;;;;;;;94.00;49.75;;;7.80;99.90;;;;;;6036940;23;20063;-82
2024/02/11 00:08:16;;;;;;;94.85;49.15;;;7.90;99.90;;;;;;6059187;23;20066;-82
2024/02/11 00:11:04;;;;;;;92.60;48.95;;;7.90;99.90;;;;;;6058063;23;20470;-79
2024/02/11 00:13:51;;;;;;;92.22;48.03;;;7.90;99.90;;;;;;6055949;23;20074;-83
2024/02/11 00:16:39;;;;;;;81.07;44.08;;;7.90;99.90;;;;;;6071002;23;20081;-77
2024/02/11 00:19:27;;;;;;;95.60;47.05;;;7.90;99.90;;;;;;6068220;23;20091;-84
2024/02/11 00:22:16;;;;;;;91.25;45.85;;;7.90;99.90;;;;;;6056910;23;20042;-83
2024/02/11 00:25:07;;;;;;;84.18;44.95;;;7.80;99.90;;;;;;6057784;23;20026;-77
2024/02/11 00:27:54;;;;;;;99.15;50.13;;;7.80;99.90;;;;;;6058399;23;20850;-82
2024/02/11 00:30:42;;;;;;;94.50;48.15;;;7.80;99.90;;;;;;6062761;23;20031;-79
2024/02/11 00:33:32;;;;;;;107.47;48.85;;;7.80;99.90;;;;;;6066221;23;20023;-84
2024/02/11 00:36:21;;;;;;;88.35;44.45;;;7.80;99.90;;;;;;6058909;23;20414;-84
2024/02/11 00:39:09;;;;;;;99.47;46.78;;;7.80;99.90;;;;;;6057756;23;20034;-82
2024/02/11 00:41:56;;;;;;;95.90;44.97;;;7.70;99.90;;;;;;6057255;23;20058;-85
2024/02/11 00:44:44;;;;;;;87.85;42.45;;;7.70;99.90;;;;;;6063297;23;20117;-83
2024/02/11 00:47:31;;;;;;;72.45;40.10;;;7.70;99.90;;;;;;6034590;23;20113;-81
2024/02/11 00:50:19;;;;;;;85.10;43.65;;;7.70;99.90;;;;;;6054951;23;20758;-82
2024/02/11 00:53:06;;;;;;;90.70;45.50;;;7.70;99.90;;;;;;6044735;23;20027;-81
2024/02/11 00:55:55;;;;;;;94.15;46.10;;;7.70;99.90;;;;;;6076274;23;20031;-79
2024/02/11 00:58:45;;;;;;;94.40;46.75;;;7.70;99.90;;;;;;6057163;23;20030;-76
2024/02/11 01:01:33;;;;;;;100.00;45.92;;;7.70;99.90;;;;;;6078645;23;20025;-79
2024/02/11 01:04:20;;;;;;;99.28;48.15;;;7.70;99.90;;;;;;6072305;23;20022;-82
2024/02/11 01:07:08;;;;;;;93.50;47.88;;;7.70;99.90;;;;;;6060305;23;20039;-82
2024/02/11 01:09:55;;;;;;;97.30;48.55;;;7.70;99.90;;;;;;6039577;23;20034;-80
2024/02/11 01:12:45;;;;;;;95.43;46.90;;;7.70;99.90;;;;;;6067357;23;20073;-83
2024/02/11 01:15:35;;;;;;;96.22;49.00;;;7.60;99.90;;;;;;6056452;23;20521;-83
2024/02/11 01:18:23;;;;;;;113.00;52.65;;;7.70;99.90;;;;;;6039814;23;20836;-79
2024/02/11 01:21:15;;;;;;;101.43;49.90;;;7.70;99.90;;;;;;6071240;23;20086;-83
2024/02/11 01:24:02;;;;;;;95.72;48.55;;;7.70;99.90;;;;;;6069725;23;20038;-80
2024/02/11 01:26:50;;;;;;;93.82;47.63;;;7.70;99.90;;;;;;6059811;23;20101;-83
2024/02/11 01:29:37;;;;;;;84.28;42.35;;;7.70;99.90;;;;;;6058448;23;20075;-82
2024/02/11 01:32:25;;;;;;;80.57;42.05;;;7.70;99.90;;;;;;6059867;23;20027;-83
2024/02/11 01:35:12;;;;;;;75.10;41.05;;;7.70;99.90;;;;;;6056614;23;20026;-79
2024/02/11 01:38:00;;;;;;;70.78;39.33;;;7.80;99.90;;;;;;6038580;23;20027;-82
2024/02/11 01:40:50;;;;;;;62.92;36.35;;;7.80;99.90;;;;;;6056273;23;20057;-77
2024/02/11 01:43:38;;;;;;;67.82;36.75;;;7.80;99.90;;;;;;6082693;23;20030;-78
2024/02/11 01:46:26;;;;;;;67.03;35.80;;;7.80;99.90;;;;;;6072450;23;20054;-83
2024/02/11 01:49:14;;;;;;;64.90;35.97;;;7.80;99.90;;;;;;6039019;23;20113;-82
2024/02/11 01:52:05;;;;;;;58.63;33.83;;;7.80;99.90;;;;;;6058776;23;20023;-78
2024/02/11 01:54:54;;;;;;;55.13;31.30;;;7.80;99.90;;;;;;6070443;23;20038;-81
2024/02/11 01:57:42;;;;;;;60.92;33.78;;;7.80;99.90;;;;;;6070713;23;20079;-83
2024/02/11 02:00:30;;;;;;;57.70;33.17;;;7.80;99.90;;;;;;6048608;23;20452;-83
2024/02/11 02:03:19;;;;;;;66.40;35.30;;;7.80;99.90;;;;;;6069328;23;20038;-80
2024/02/11 02:06:08;;;;;;;65.95;34.85;;;7.80;99.90;;;;;;6050148;23;20035;-80
2024/02/11 02:08:59;;;;;;;58.08;32.78;;;7.80;99.90;;;;;;6059533;23;20030;-78
2024/02/11 02:11:46;;;;;;;59.25;31.90;;;7.80;99.90;;;;;;6059437;23;20026;-79
2024/02/11 02:14:34;;;;;;;23.42;14.85;;;7.80;99.90;;;;;;6057242;23;20034;-82
2024/02/11 02:17:21;;;;;;;16.75;10.75;;;7.80;99.90;;;;;;6056794;23;20034;-80
2024/02/11 02:20:10;;;;;;;9.20;6.30;;;7.80;99.90;;;;;;6038219;23;20033;-82
2024/02/11 02:22:58;;;;;;;6.55;4.15;;;7.70;99.90;;;;;;6056392;23;20145;-82
2024/02/11 02:25:45;;;;;;;3.67;3.17;;;7.50;99.90;;;;;;6056708;23;20026;-83
2024/02/11 02:28:34;;;;;;;2.53;1.80;;;7.50;99.90;;;;;;6059535;23;20045;-80
2024/02/11 02:31:21;;;;;;;2.95;1.50;;;7.30;99.90;;;;;;6058996;23;20023;-81
2024/02/11 02:34:10;;;;;;;1.75;1.50;;;7.20;99.90;;;;;;6066603;23;20099;-80
2024/02/11 02:36:58;;;;;;;4.80;1.50;;;7.20;99.90;;;;;;6028623;23;20554;-84
2024/02/11 02:39:45;;;;;;;1.83;1.02;;;7.10;99.90;;;;;;6047498;23;20050;-80
2024/02/11 02:42:33;;;;;;;1.30;1.02;;;6.90;99.90;;;;;;6068374;23;20051;-81
2024/02/11 02:45:21;;;;;;;0.80;0.80;;;6.90;99.90;;;;;;6057870;23;20418;-84
2024/02/11 02:48:09;;;;;;;3.15;0.90;;;6.80;99.90;;;;;;6039332;23;20145;-80
2024/02/11 02:50:57;;;;;;;0.70;0.70;;;6.70;99.90;;;;;;6047604;23;20032;-82
2024/02/11 02:53:45;;;;;;;1.05;0.50;;;6.70;99.90;;;;;;6063352;23;20027;-81
2024/02/11 02:56:34;;;;;;;1.67;0.63;;;6.50;99.90;;;;;;6040467;23;20077;-82
2024/02/11 02:59:22;;;;;;;0.70;0.70;;;6.40;99.90;;;;;;6062509;23;20022;-84
2024/02/11 03:02:10;;;;;;;0.50;0.50;;;6.30;99.90;;;;;;6056905;23;20015;-81
2024/02/11 03:04:58;;;;;;;0.47;0.47;;;6.20;99.90;;;;;;6037486;23;20627;-80
2024/02/11 03:07:47;;;;;;;0.52;0.50;;;6.20;99.90;;;;;;6059802;23;20027;-83
2024/02/11 03:10:34;;;;;;;1.20;0.60;;;6.10;99.90;;;;;;6060086;23;20078;-82
2024/02/11 03:13:21;;;;;;;0.82;0.60;;;6.10;99.90;;;;;;6059081;23;20027;-83
2024/02/11 03:16:15;;;;;;;3.63;0.60;;;6.00;99.90;;;;;;6057534;23;20023;-82
2024/02/11 03:19:05;;;;;;;1.42;0.60;;;5.90;99.90;;;;;;6071084;23;20042;-80
2024/02/11 03:21:53;;;;;;;0.43;0.43;;;5.80;99.90;;;;;;6075063;23;20023;-84
2024/02/11 03:24:44;;;;;;;0.70;0.70;;;5.70;99.90;;;;;;6075954;23;20585;-81
2024/02/11 03:27:31;;;;;;;0.57;0.57;;;5.70;99.90;;;;;;6062365;23;20082;-83
2024/02/11 03:30:21;;;;;;;1.25;0.50;;;5.60;99.90;;;;;;6067859;23;20023;-78
2024/02/11 03:33:09;;;;;;;0.60;0.50;;;5.50;99.90;;;;;;6050314;23;20191;-81
2024/02/11 03:35:57;;;;;;;0.68;0.68;;;5.40;99.90;;;;;;6060225;23;20030;-81
2024/02/11 03:38:44;;;;;;;1.23;0.70;;;5.40;99.90;;;;;;6058286;23;20030;-81
2024/02/11 03:41:35;;;;;;;0.50;0.50;;;5.40;99.90;;;;;;6057578;23;20031;-84
2024/02/11 03:44:22;;;;;;;1.67;0.90;;;5.40;99.90;;;;;;6056526;23;20031;-82
2024/02/11 03:47:10;;;;;;;0.60;0.60;;;5.30;99.90;;;;;;6054503;23;20033;-83
2024/02/11 03:49:57;;;;;;;1.08;0.50;;;5.30;99.90;;;;;;6055978;23;20465;-80
2024/02/11 03:52:45;;;;;;;0.60;0.60;;;5.20;99.90;;;;;;6055863;23;20023;-79
2024/02/11 03:55:33;;;;;;;0.60;0.60;;;5.10;99.90;;;;;;6054331;23;20022;-82
2024/02/11 03:58:22;;;;;;;2.28;0.70;;;5.10;99.90;;;;;;6055045;23;20027;-83
2024/02/11 04:01:09;;;;;;;1.27;0.68;;;5.10;99.90;;;;;;6059488;23;20059;-83
2024/02/11 04:03:57;;;;;;;0.60;0.60;;;5.00;99.90;;;;;;6045134;23;20026;-79
2024/02/11 04:06:48;;;;;;;0.60;0.60;;;5.00;99.90;;;;;;6068685;23;20090;-79
2024/02/11 04:09:39;;;;;;;1.02;1.02;;;4.90;99.90;;;;;;6052318;23;20539;-82
2024/02/11 04:12:27;;;;;;;0.70;0.70;;;4.90;99.90;;;;;;6065832;23;20040;-81
2024/02/11 04:15:16;;;;;;;0.70;0.70;;;4.90;99.90;;;;;;6064669;23;20103;-82
2024/02/11 04:18:10;;;;;;;3.53;0.80;;;4.80;99.90;;;;;;6058330;23;20398;-80
2024/02/11 04:20:59;;;;;;;0.70;0.70;;;4.80;99.90;;;;;;6039386;23;20031;-81
2024/02/11 04:23:48;;;;;;;5.28;1.10;;;4.80;99.90;;;;;;6059991;23;20042;-79
2024/02/11 04:26:40;;;;;;;1.70;0.80;;;4.70;99.90;;;;;;6063553;23;20042;-82
2024/02/11 04:29:28;;;;;;;1.50;0.80;;;4.70;99.90;;;;;;6056741;23;20037;-80
2024/02/11 04:32:16;;;;;;;1.30;0.80;;;4.70;99.90;;;;;;6058844;23;20031;-79
2024/02/11 04:35:05;;;;;;;1.17;0.90;;;4.60;99.90;;;;;;6037874;23;20488;-79
2024/02/11 04:37:53;;;;;;;0.80;0.80;;;4.60;99.90;;;;;;6057759;23;20027;-84
2024/02/11 04:40:41;;;;;;;1.30;0.98;;;4.60;99.90;;;;;;6058845;23;20082;-79
2024/02/11 04:43:29;;;;;;;0.70;0.70;;;4.50;99.90;;;;;;6039734;23;20514;-80
2024/02/11 04:46:19;;;;;;;0.85;0.85;;;4.50;99.90;;;;;;6059843;23;20094;-80
2024/02/11 04:49:07;;;;;;;1.83;0.95;;;4.50;99.90;;;;;;6057252;23;20088;-83
2024/02/11 04:51:55;;;;;;;0.70;0.70;;;4.50;99.90;;;;;;6058940;23;20110;-82
2024/02/11 04:54:42;;;;;;;0.70;0.70;;;4.50;99.90;;;;;;6054578;23;20031;-80
2024/02/11 04:57:38;;;;;;;0.80;0.80;;;4.50;99.90;;;;;;6067446;23;20047;-80
2024/02/11 05:00:28;;;;;;;1.52;0.80;;;4.40;99.90;;;;;;6067670;23;20026;-81
2024/02/11 05:03:19;;;;;;;0.90;0.80;;;4.40;99.90;;;;;;6062402;23;20029;-76
2024/02/11 05:06:07;;;;;;;0.80;0.80;;;4.40;99.90;;;;;;6083611;23;20014;-77
2024/02/11 05:08:55;;;;;;;0.80;0.80;;;4.40;99.90;;;;;;6091306;23;20058;-84
2024/02/11 05:11:45;;;;;;;0.70;0.70;;;4.40;99.90;;;;;;6061511;23;20114;-82
2024/02/11 05:14:34;;;;;;;0.80;0.80;;;4.40;99.90;;;;;;6058119;23;20356;-81
2024/02/11 05:17:23;;;;;;;0.95;0.95;;;4.30;99.90;;;;;;6039720;23;20031;-81
2024/02/11 05:20:12;;;;;;;0.98;0.98;;;4.30;99.90;;;;;;6060306;23;20019;-82
2024/02/11 05:23:00;;;;;;;1.83;1.73;;;4.40;99.90;;;;;;6057878;23;20035;-82
2024/02/11 05:25:50;;;;;;;2.40;2.10;;;4.30;99.90;;;;;;6038876;23;20030;-81
2024/02/11 05:28:37;;;;;;;1.90;1.80;;;4.30;99.90;;;;;;6059213;23;20027;-80
2024/02/11 05:31:28;;;;;;;2.33;2.13;;;4.20;99.90;;;;;;6060521;23;20026;-81
2024/02/11 05:34:16;;;;;;;2.60;2.40;;;4.20;99.90;;;;;;6037022;23;20066;-80
2024/02/11 05:37:07;;;;;;;2.35;2.15;;;4.30;99.90;;;;;;6059770;23;20026;-82
2024/02/11 05:39:56;;;;;;;2.00;1.90;;;4.20;99.90;;;;;;6064757;23;20027;-83
2024/02/11 05:42:43;;;;;;;1.98;1.73;;;4.20;99.90;;;;;;6069324;23;20453;-82
2024/02/11 05:45:31;;;;;;;1.92;1.83;;;4.20;99.90;;;;;;6060978;23;20086;-80
2024/02/11 05:48:20;;;;;;;3.65;1.58;;;4.20;99.90;;;;;;6065235;23;20022;-76
2024/02/11 05:51:07;;;;;;;1.45;1.35;;;4.20;99.90;;;;;;6069844;23;20109;-82
2024/02/11 05:53:54;;;;;;;1.30;1.20;;;4.20;99.90;;;;;;6062590;23;20027;-83
2024/02/11 05:56:42;;;;;;;1.40;1.35;;;4.20;99.90;;;;;;6058670;23;20051;-81
2024/02/11 05:59:30;;;;;;;2.28;1.25;;;4.10;99.90;;;;;;6055985;23;20030;-81
2024/02/11 06:02:17;;;;;;;3.35;1.40;;;4.10;99.90;;;;;;6036150;23;20047;-81
2024/02/11 06:05:06;;;;;;;1.75;1.65;;;4.10;99.90;;;;;;6056117;23;20474;-79
2024/02/11 06:07:56;;;;;;;1.83;1.73;;;4.10;99.90;;;;;;6056140;23;20037;-81
2024/02/11 06:10:45;;;;;;;1.85;1.75;;;4.10;99.90;;;;;;6056928;23;20050;-80
2024/02/11 06:13:33;;;;;;;2.65;2.28;;;4.10;99.90;;;;;;6058110;23;20030;-81
2024/02/11 06:16:21;;;;;;;3.53;2.00;;;4.10;99.90;;;;;;6037030;23;20046;-80
2024/02/11 06:19:10;;;;;;;2.33;2.10;;;4.10;99.90;;;;;;6058782;23;20513;-82
2024/02/11 06:21:59;;;;;;;3.92;2.20;;;4.10;99.90;;;;;;6018272;23;20053;-77
2024/02/11 06:24:47;;;;;;;3.70;2.47;;;4.00;99.90;;;;;;6067756;23;20486;-81
2024/02/11 06:27:38;;;;;;;2.55;2.30;;;4.00;99.90;;;;;;6068964;23;20030;-80
2024/02/11 06:30:25;;;;;;;3.10;2.50;;;4.10;99.90;;;;;;6050321;23;20034;-83
2024/02/11 06:33:13;;;;;;;2.97;2.55;;;4.10;99.90;;;;;;6066847;23;20029;-80
2024/02/11 06:36:00;;;;;;;3.50;2.85;;;4.10;99.90;;;;;;6071337;23;20030;-85
2024/02/11 06:38:47;;;;;;;3.40;2.90;;;4.10;99.90;;;;;;6064483;23;20027;-83
2024/02/11 06:41:36;;;;;;;5.18;3.40;;;4.10;99.90;;;;;;6059721;23;20122;-82
2024/02/11 06:44:26;;;;;;;4.90;3.97;;;4.10;99.90;;;;;;6058984;23;20055;-83
2024/02/11 06:47:15;;;;;;;3.88;3.38;;;4.10;99.90;;;;;;6059717;23;20481;-79
2024/02/11 06:50:09;;;;;;;5.28;3.85;;;4.10;99.90;;;;;;6033470;23;20037;-79
2024/02/11 06:52:57;;;;;;;5.30;3.80;;;4.10;99.90;;;;;;6036026;23;20196;-79
2024/02/11 06:55:47;;;;;;;6.30;4.32;;;4.10;99.90;;;;;;6059959;23;20027;-79
2024/02/11 06:58:37;;;;;;;4.68;3.55;;;4.10;99.90;;;;;;6060875;23;20250;-82
2024/02/11 07:01:25;;;;;;;5.40;4.50;;;4.10;99.90;;;;;;6040205;23;20058;-83
2024/02/11 07:04:12;;;;;;;5.75;4.53;;;4.20;99.90;;;;;;6062591;23;20033;-80
2024/02/11 07:07:04;;;;;;;9.57;4.85;;;4.20;99.90;;;;;;6060114;23;20031;-81
2024/02/11 07:09:51;;;;;;;8.90;5.45;;;4.20;99.90;;;;;;6066446;23;20146;-81
2024/02/11 07:12:39;;;;;;;6.15;4.70;;;4.20;99.90;;;;;;6068061;23;20537;-80
2024/02/11 07:15:28;;;;;;;10.50;5.40;;;4.20;99.90;;;;;;6048654;23;20019;-82
2024/02/11 07:18:16;;;;;;;10.55;6.40;;;4.20;99.90;;;;;;6047029;23;20026;-81
2024/02/11 07:21:06;;;;;;;11.23;6.55;;;4.20;99.90;;;;;;6068193;23;20058;-81
2024/02/11 07:23:55;;;;;;;12.65;6.47;;;4.30;99.90;;;;;;6062503;23;20051;-82
2024/02/11 07:26:42;;;;;;;10.48;6.88;;;4.30;99.90;;;;;;6057006;23;20097;-83
2024/02/11 07:29:38;;;;;;;12.45;6.78;;;4.30;99.90;;;;;;6058241;23;20369;-80
2024/02/11 07:32:26;;;;;;;11.25;6.38;;;4.30;99.90;;;;;;6059856;23;20406;-81
2024/02/11 07:35:15;;;;;;;15.23;7.45;;;4.30;99.90;;;;;;6059649;23;20027;-78
2024/02/11 07:38:05;;;;;;;12.30;7.35;;;4.40;99.90;;;;;;6059984;23;20355;-78
2024/02/11 07:40:57;;;;;;;15.57;7.80;;;4.40;99.90;;;;;;6060361;23;20026;-78
2024/02/11 07:43:49;;;;;;;13.38;8.00;;;4.40;99.90;;;;;;6059375;23;20134;-79
2024/02/11 07:46:37;;;;;;;15.20;8.57;;;4.40;99.90;;;;;;6062945;23;20474;-80
2024/02/11 07:49:28;;;;;;;18.65;9.48;;;4.40;99.90;;;;;;6061982;23;20038;-80
2024/02/11 07:52:17;;;;;;;17.25;9.73;;;4.40;99.90;;;;;;6041013;23;20027;-81
2024/02/11 07:55:07;;;;;;;16.15;8.10;;;4.50;99.90;;;;;;6061939;23;20106;-80
2024/02/11 07:57:55;;;;;;;19.20;8.50;;;4.50;99.90;;;;;;6059386;23;20022;-81
2024/02/11 08:00:42;;;;;;;17.27;8.45;;;4.60;99.90;;;;;;6062358;23;20034;-81
2024/02/11 08:03:32;;;;;;;15.48;8.43;;;4.60;99.90;;;;;;6067880;23;20050;-81
2024/02/11 08:06:21;;;;;;;15.05;8.32;;;4.60;99.90;;;;;;6065649;23;20449;-79
2024/02/11 08:09:10;;;;;;;15.15;7.75;;;4.60;99.90;;;;;;6037718;23;20035;-78
2024/02/11 08:11:59;;;;;;;19.90;7.68;;;4.70;99.90;;;;;;6057396;23;20037;-79
2024/02/11 08:14:46;;;;;;;15.07;6.75;;;4.70;99.90;;;;;;6067882;23;20027;-80
2024/02/11 08:17:34;;;;;;;14.27;7.25;;;4.70;99.90;;;;;;6060551;23;20117;-80
2024/02/11 08:20:22;;;;;;;13.55;6.05;;;4.80;99.90;;;;;;6061074;23;20162;-81
2024/02/11 08:23:10;;;;;;;14.32;6.18;;;4.80;99.90;;;;;;6040461;23;20086;-77
2024/02/11 08:25:58;;;;;;;8.95;5.65;;;4.90;99.90;;;;;;6059657;23;20118;-79
2024/02/11 08:28:46;;;;;;;9.25;5.78;;;4.90;99.90;;;;;;6068847;23;20034;-80
2024/02/11 08:31:34;;;;;;;10.27;6.03;;;5.00;99.90;;;;;;6072709;23;20054;-79
2024/02/11 08:34:23;;;;;;;9.73;5.60;;;5.10;99.90;;;;;;6079654;23;20255;-78
2024/02/11 08:37:12;;;;;;;11.95;5.80;;;5.10;99.90;;;;;;6078861;23;20070;-76
2024/02/11 08:39:59;;;;;;;11.40;6.03;;;5.20;99.90;;;;;;6066979;23;20043;-80
2024/02/11 08:42:47;;;;;;;10.20;6.38;;;5.30;99.90;;;;;;6039977;23;20041;-81
2024/02/11 08:45:36;;;;;;;11.88;6.03;;;5.40;99.90;;;;;;6068431;23;20114;-79
2024/02/11 08:48:25;;;;;;;13.65;6.43;;;5.50;99.90;;;;;;6068771;23;20129;-80
2024/02/11 08:51:15;;;;;;;13.00;6.85;;;5.60;99.90;;;;;;6038497;23;20458;-78
2024/02/11 08:54:04;;;;;;;8.15;5.22;;;5.80;99.90;;;;;;6067738;23;20110;-80
2024/02/11 08:56:54;;;;;;;11.68;6.30;;;6.10;99.90;;;;;;6038155;23;20025;-79
2024/02/11 08:59:41;;;;;;;15.18;5.78;;;6.10;99.90;;;;;;6061485;23;20050;-83
2024/02/11 09:02:29;;;;;;;11.43;5.88;;;6.20;99.90;;;;;;6056943;23;20054;-81
2024/02/11 09:05:20;;;;;;;10.30;5.88;;;6.10;99.90;;;;;;6040476;23;20027;-80
2024/02/11 09:08:08;;;;;;;14.23;5.70;;;6.30;99.90;;;;;;6060468;23;20038;-79
2024/02/11 09:10:57;;;;;;;13.32;6.00;;;6.20;99.90;;;;;;6037752;23;20031;-81
2024/02/11 09:13:45;;;;;;;12.00;5.40;;;6.30;99.90;;;;;;6054109;23;20058;-80
2024/02/11 09:16:32;;;;;;;11.57;5.97;;;6.20;99.90;;;;;;6055825;23;20047;-80
2024/02/11 09:19:29;;;;;;;9.77;6.35;;;6.30;99.90;;;;;;6056925;23;20229;-81
2024/02/11 09:22:18;;;;;;;11.48;6.50;;;6.20;99.90;;;;;;6058321;23;20026;-81
2024/02/11 09:25:09;;;;;;;13.45;6.57;;;6.20;99.90;;;;;;6037823;23;20098;-80
2024/02/11 09:27:59;;;;;;;11.65;7.18;;;6.10;99.90;;;;;;6057134;23;21002;-80
2024/02/11 09:30:48;;;;;;;10.73;6.78;;;6.10;99.90;;;;;;6044168;23;20031;-81
2024/02/11 09:33:38;;;;;;;18.55;7.28;;;6.00;99.90;;;;;;6069428;23;20034;-81
2024/02/11 09:36:25;;;;;;;15.65;7.50;;;6.10;99.90;;;;;;6049132;23;20042;-80
2024/02/11 09:39:15;;;;;;;17.45;9.02;;;6.10;99.90;;;;;;6042990;23;20037;-79
2024/02/11 09:42:03;;;;;;;14.35;7.45;;;6.10;99.90;;;;;;6069076;23;20624;-79
2024/02/11 09:44:54;;;;;;;13.23;7.43;;;6.20;99.90;;;;;;6066048;23;20533;-81
2024/02/11 09:47:45;;;;;;;13.20;7.18;;;6.20;99.90;;;;;;6059701;23;20129;-79
2024/02/11 09:50:35;;;;;;;17.60;7.38;;;6.30;99.90;;;;;;6059173;23;20030;-80
2024/02/11 09:53:28;;;;;;;14.57;7.78;;;6.50;99.90;;;;;;6064458;23;20167;-78
2024/02/11 09:56:19;;;;;;;14.85;8.38;;;6.50;99.90;;;;;;6060838;23;20026;-80
2024/02/11 09:59:11;;;;;;;20.67;8.07;;;6.40;99.90;;;;;;6060808;23;20031;-80
2024/02/11 10:02:07;;;;;;;18.02;7.93;;;6.40;99.90;;;;;;6060810;23;20795;-80
2024/02/11 10:04:59;;;;;;;17.10;7.60;;;6.50;99.90;;;;;;6064669;23;20035;-81
2024/02/11 10:07:47;;;;;;;;;;;6.60;99.90;;;;;;6061570;23;20052;-78
2024/02/11 10:10:35;;;;;;;17.45;7.50;;;6.70;99.90;;;;;;6061077;23;19941;-80
2024/02/11 10:13:25;;;;;;;19.90;7.90;;;6.70;99.90;;;;;;6039527;23;20078;-82
2024/02/11 10:16:13;;;;;;;15.60;7.38;;;6.70;99.90;;;;;;6059111;23;20458;-80
2024/02/11 10:19:03;;;;;;;12.98;7.90;;;6.70;99.90;;;;;;6059118;23;20022;-82
2024/02/11 10:21:55;;;;;;;13.30;6.80;;;6.70;99.90;;;;;;6060884;23;20026;-80
2024/02/11 10:25:05;;;;;;;16.58;6.05;;;6.80;59.30;;;;;;6059600;23;20034;-80
2024/02/11 10:27:55;;;;;;;13.77;6.50;;;6.80;1.00;;;;;;6058166;23;20585;-81
2024/02/11 10:30:44;;;;;;;9.95;6.18;;;6.80;99.90;;;;;;6064355;23;20031;-82
2024/02/11 10:33:33;;;;;;;11.27;5.75;;;6.90;99.90;;;;;;6053978;23;20031;-81
2024/02/11 10:36:24;;;;;;;13.73;5.88;;;7.10;1.00;;;;;;6077776;23;20027;-81
2024/02/11 10:39:13;;;;;;;11.77;5.38;;;7.40;99.90;;;;;;6061465;23;20023;-80
2024/02/11 10:42:01;;;;;;;13.05;5.53;;;7.40;1.00;;;;;;6075082;23;20029;-81
2024/02/11 10:44:59;;;;;;;11.90;5.82;;;7.60;1.00;;;;;;6068294;23;20034;-81
2024/02/11 10:47:47;;;;;;;11.50;6.05;;;7.90;1.00;;;;;;6070297;23;20062;-81
2024/02/11 10:50:35;;;;;;;12.77;5.13;;;8.10;99.90;;;;;;6065912;23;20071;-80
2024/02/11 10:53:24;;;;;;;11.20;4.88;;;7.90;99.90;;;;;;6065629;23;20047;-80
2024/02/11 10:56:14;;;;;;;8.55;5.28;;;7.60;99.90;;;;;;6074557;23;20067;-77
2024/02/11 10:59:13;;;;;;;8.50;4.90;;;7.50;1.00;;;;;;6079405;23;20027;-78
2024/02/11 11:02:01;;;;;;;6.88;4.60;;;7.50;1.00;;;;;;6038504;23;20057;-79
2024/02/11 11:04:57;;;;;;;10.13;4.68;;;7.40;99.90;;;;;;6057883;23;20018;-79
2024/02/11 11:07:52;;;;;;;10.38;4.57;;;7.40;99.90;;;;;;6075109;23;20030;-80
2024/02/11 11:10:41;;;;;;;13.73;5.03;;;7.40;99.90;;;;;;6048411;23;20068;-79
2024/02/11 11:13:31;;;;;;;8.45;4.47;;;7.40;7.20;;;;;;6059882;23;20030;-80
2024/02/11 11:16:30;;;;;;;7.57;4.57;;;7.30;1.00;;;;;;6074648;23;20059;-79
2024/02/11 11:19:18;;;;;;;9.15;4.80;;;7.30;1.00;;;;;;6073785;23;20301;-77
2024/02/11 11:22:08;;;;;;;7.68;4.28;;;7.30;1.00;;;;;;6052926;23;20023;-80
2024/02/11 11:24:56;;;;;;;8.45;3.92;;;7.40;1.00;;;;;;6074766;23;20066;-76
2024/02/11 11:27:44;;;;;;;10.25;4.40;;;7.50;1.00;;;;;;6087276;23;20025;-78
2024/02/11 11:30:33;;;;;;;6.72;4.55;;;7.50;99.90;;;;;;6087678;23;20031;-79
2024/02/11 11:33:20;;;;;;;5.78;3.65;;;7.60;99.90;;;;;;6071901;23;20031;-80
2024/02/11 11:36:08;;;;;;;6.53;3.92;;;7.70;99.90;;;;;;6063453;23;20117;-78
2024/02/11 11:39:13;;;;;;;5.50;3.42;;;7.70;99.90;;;;;;6071822;23;20041;-80
2024/02/11 11:42:01;;;;;;;7.13;3.67;;;7.80;99.90;;;;;;6070471;23;20075;-81
2024/02/11 11:44:51;;;;;;;6.13;2.97;;;8.40;99.90;;;;;;6063394;23;20031;-81
2024/02/11 11:47:38;;;;;;;5.70;2.70;;;9.90;1.00;;;;;;6061689;23;20403;-79
2024/02/11 11:50:26;;;;;;;4.72;2.30;;;10.90;1.00;;;;;;6061185;23;20048;-79
2024/02/11 11:53:21;;;;;;;6.53;3.10;;;11.50;99.90;;;;;;6061713;23;20034;-78
2024/02/11 11:56:16;;;;;;;4.05;2.30;;;12.50;99.40;;;;;;6044631;23;20135;-77
2024/02/11 11:59:06;;;;;;;3.95;2.10;;;12.60;99.90;;;;;;6078715;23;20035;-78
2024/02/11 12:01:57;;;;;;;3.95;2.15;;;12.60;99.90;;;;;;6080148;23;20011;-78
2024/02/11 12:04:45;;;;;;;5.25;2.83;;;13.00;99.90;;;;;;6060054;23;20041;-80
2024/02/11 12:07:33;;;;;;;8.43;1.98;;;12.20;99.90;;;;;;6039119;23;20564;-79
2024/02/11 12:10:21;;;;;;;3.60;2.17;;;10.80;99.90;;;;;;6060554;23;20027;-80
2024/02/11 12:13:13;;;;;;;4.38;2.33;;;10.10;99.90;;;;;;6040163;23;20113;-81
2024/02/11 12:16:04;;;;;;;4.65;2.17;;;9.70;99.90;;;;;;6057052;23;20037;-80
2024/02/11 12:18:54;;;;;;;3.72;2.10;;;9.70;99.90;;;;;;6059646;23;20286;-78
2024/02/11 12:21:49;;;;;;;3.08;2.10;;;8.80;99.90;;;;;;6064960;23;20366;-79
2024/02/11 12:24:41;;;;;;;3.75;2.45;;;8.40;99.90;;;;;;6048096;23;20034;-80
2024/02/11 12:27:31;;;;;;;5.50;2.78;;;8.40;99.90;;;;;;6049278;23;20378;-81
2024/02/11 12:30:26;;;;;;;5.45;2.58;;;9.40;99.90;;;;;;6059144;23;20051;-80
2024/02/11 12:33:16;;;;;;;4.25;2.38;;;10.00;99.90;;;;;;6054659;23;20094;-79
2024/02/11 12:36:13;;;;;;;4.60;3.55;;;9.80;99.90;;;;;;6068345;23;20034;-79
2024/02/11 12:39:01;;;;;;;2.78;2.00;;;9.40;99.90;;;;;;6063035;23;20026;-79
2024/02/11 12:41:51;;;;;;;4.53;2.28;;;8.70;99.90;;;;;;6056109;23;20026;-79
2024/02/11 12:44:38;;;;;;;8.32;2.55;;;8.30;99.90;;;;;;6059951;23;20466;-80
2024/02/11 12:47:27;;;;;;;5.22;2.65;;;7.90;99.90;;;;;;6036001;23;20026;-81
2024/02/11 12:50:18;;;;;;;4.57;2.80;;;7.80;1.00;;;;;;6057213;23;20023;-78
2024/02/11 12:53:10;;;;;;;4.32;2.90;;;7.60;1.00;;;;;;6037895;23;20086;-79
2024/02/11 12:55:59;;;;;;;3.25;2.40;;;7.70;99.90;;;;;;6036203;23;20019;-79
2024/02/11 12:58:49;;;;;;;7.25;2.33;;;8.10;99.90;;;;;;6037591;23;20023;-78
2024/02/11 13:01:38;;;;;;;3.65;1.95;;;9.20;99.90;;;;;;6037770;23;20033;-80
2024/02/11 13:04:26;;;;;;;2.05;1.75;;;10.20;99.90;;;;;;6058532;23;20063;-80
2024/02/11 13:07:13;;;;;;;5.03;2.20;;;11.00;99.90;;;;;;6035803;23;20027;-79
2024/02/11 13:10:02;;;;;;;3.80;2.25;;;10.30;99.90;;;;;;6057833;23;20070;-80
2024/02/11 13:12:52;;;;;;;2.35;1.60;;;9.70;99.90;;;;;;6064013;23;20466;-80
2024/02/11 13:15:44;;;;;;;3.75;1.88;;;9.20;99.90;;;;;;6067826;23;20477;-80
2024/02/11 13:18:31;;;;;;;5.38;2.10;;;8.90;99.90;;;;;;6074039;23;20027;-80
2024/02/11 13:21:19;;;;;;;2.83;2.00;;;8.80;99.90;;;;;;6063786;23;20118;-81
2024/02/11 13:24:07;;;;;;;2.75;1.83;;;8.30;99.90;;;;;;6061659;23;20042;-80
2024/02/11 13:26:55;;;;;;;3.65;1.90;;;8.10;99.90;;;;;;6069600;23;20362;-81
2024/02/11 13:29:45;;;;;;;2.70;1.80;;;7.90;99.90;;;;;;6059851;23;20058;-78
2024/02/11 13:32:36;;;;;;;3.80;2.20;;;7.80;99.90;;;;;;6062675;23;20046;-82
2024/02/11 13:35:24;;;;;;;3.75;2.13;;;7.80;99.90;;;;;;6065766;23;20029;-79
2024/02/11 13:38:12;;;;;;;4.45;2.10;;;7.80;99.90;;;;;;6062850;23;20027;-80
2024/02/11 13:41:04;;;;;;;2.05;1.85;;;7.90;99.90;;;;;;6061374;23;20033;-81
2024/02/11 13:43:53;;;;;;;3.80;1.88;;;9.10;99.90;;;;;;6018826;23;20078;-79
2024/02/11 13:46:41;;;;;;;2.60;1.70;;;10.90;99.90;;;;;;6061518;23;20102;-81
2024/02/11 13:49:28;;;;;;;3.92;1.70;;;11.70;99.90;;;;;;6040808;23;20039;-78
2024/02/11 13:52:16;;;;;;;5.25;2.50;;;10.50;99.90;;;;;;6041601;23;20035;-79
2024/02/11 13:55:05;;;;;;;6.47;1.67;;;9.90;99.90;;;;;;6061025;23;20055;-80
2024/02/11 13:57:56;;;;;;;2.35;1.95;;;9.40;99.90;;;;;;6049816;23;20105;-76
2024/02/11 14:00:43;;;;;;;2.55;1.42;;;9.30;99.90;;;;;;6052338;23;20027;-78
2024/02/11 14:03:32;;;;;;;4.65;1.50;;;9.10;99.90;;;;;;6051572;23;20059;-80
2024/02/11 14:06:23;;;;;;;3.05;2.00;;;8.80;99.90;;;;;;6049038;23;20039;-76
2024/02/11 14:09:13;;;;;;;6.18;1.90;;;8.70;99.90;;;;;;6075502;23;20038;-79
2024/02/11 14:12:04;;;;;;;2.92;2.28;;;8.60;99.90;;;;;;6069301;23;20038;-80
2024/02/11 14:14:53;;;;;;;3.55;1.75;;;8.50;99.90;;;;;;6058121;23;20038;-81
2024/02/11 14:17:46;;;;;;;2.03;1.67;;;8.80;99.90;;;;;;6045916;23;20034;-79
2024/02/11 14:20:36;;;;;;;3.15;2.00;;;9.00;99.90;;;;;;6058154;23;20037;-82
2024/02/11 14:23:31;;;;;;;4.57;2.03;;;9.00;99.90;;;;;;6065418;23;20310;-80
2024/02/11 14:26:20;;;;;;;3.58;2.28;;;8.80;99.90;;;;;;6065035;23;20030;-81
2024/02/11 14:29:10;;;;;;;3.80;2.10;;;8.60;99.90;;;;;;6060756;23;20034;-80
2024/02/11 14:32:03;;;;;;;2.83;1.40;;;8.80;99.90;;;;;;6038673;23;20030;-80
2024/02/11 14:34:50;;;;;;;4.20;1.45;;;10.00;99.90;;;;;;6039593;23;20113;-78
2024/02/11 14:37:41;;;;;;;2.13;1.40;;;11.20;99.90;;;;;;6038638;23;20522;-79
2024/02/11 14:40:31;;;;;;;2.42;1.42;;;12.40;99.90;;;;;;6021574;23;20088;-79
2024/02/11 14:43:20;;;;;;;3.97;1.88;;;12.30;99.90;;;;;;6061664;23;20046;-79
2024/02/11 14:46:08;;;;;;;4.55;2.47;;;12.40;99.90;;;;;;6057248;23;20030;-79